« ### RJNT log 202403 ### | トップページ | 定点 富山空港他 2024/4/6 sat »

2024/04/02

定点 富山空港 2024/4/2 tue

新年度に入りました。今年は入社式も新型コロナ前の規模に戻って、株価も高値を付けて景気が良いはずなのですが、気持ちはイマイチ。

RJNT 020100Z 36006KT 9999 FEW100 BKN120 BKN/// 11/01 Q1018

20240402_rjnt_00ja838n

陽射しは春ですが、寒い北風。朝から測量機がバシバシ飛んでいます。

20240402_rjnt_01ja001x

JA001X C170S 春の便りかな

RJNT 020200Z 35006KT 320V050 9999 FEW090 SCT100 BKN120 12/02 Q1019

20240402_rjnt_02ja838n

JA838N C208A NNK

20240402_rjnt_03ja79an

RNAV RWY02

20240402_rjnt_04ja79an
20240402_rjnt_05ja79an

ANA315 RJTT-RJNT JA79AN B737-881

20240402_rjnt_06ja79an

サクラはまだですが、ハクモクレンが咲きだしました。

20240402_rjnt_07ja173b

JA173B BK117C-2 THK 富山県ドクターヘリ 今日も現場へ急行

20240402_rjnt_08ja001x

JA001X↑

RJNT 020300Z 35004KT 9999 FEW090 SCT100 BKN120 11/03 Q1019

20240402_rjnt_09ja79an

シーケンスのやり繰りがあって、ランナップしてしばし待機。

20240402_rjnt_10ja83an

1182が、ダウンウインドに入りました。しかし、あの管制指示は、ちょっと乱暴かな。TCASアラートが鳴るよ。

20240402_rjnt_11ja79an
20240402_rjnt_12ja79an

ANA316 RJNT-RJTT JA79AN B737-881

20240402_rjnt_13ja173b

JA173B 春山バックに帰投

20240402_rjnt_14ja83an

これはサークリング

20240402_rjnt_15ja83an
20240402_rjnt_16ja83an

ANA1182 RJCC-RJNT JA83AN B737-881

20240402_rjnt_17ja83an

RJNT 020400Z 02003KT 330V060 9999 FEW080 SCT090 BKN100 12/03 Q1018

20240402_rjnt_18b5261

今日から上海さんの時刻が早くなりました。

20240402_rjnt_19b5261
20240402_rjnt_20b5261

CSH825 ZSPD-RJNT B-5261 B737-7D6

20240402_rjnt_21b5261

千歳便と重なるようね

20240402_rjnt_22b5261

ニィハオ

20240402_rjnt_23b5261
20240402_rjnt_24ja83an
20240402_rjnt_25ja83an
20240402_rjnt_26ja83an

ANA1181 RJNT-RJCC JA83AN B737-881

20240402_rjnt_27ja139t

JA139T↑ AW139 富山県警察 場周訓練から

20240402_rjnt_28ja30mp

山取材をしてきたのかな?

20240402_rjnt_29ja30mp

JA30MP↓ EC135T1 MSP

20240402_rjnt_30ja139t

P/G 1回のみで、県内フライトへ

20240402_rjnt_31ja6512

JA6512↓ AS350B3 AKF

20240402_rjnt_32ja01ad

ようやく撤収の模様

20240402_rjnt_33ja01ad

JA01AD C208B HRT

20240402_rjnt_34ja119w

JA119W↑ AW139 富山県消防防災

新年度、隊長さん他が交代して、初めての訓練

せっかく時刻が早くなった上海さんでしたが、EDCTがかかって、結局16時半の出発となった。乗務員の方は、大変やね。

|

« ### RJNT log 202403 ### | トップページ | 定点 富山空港他 2024/4/6 sat »

富山空港」カテゴリの記事

コメント

コメントを書く



(ウェブ上には掲載しません)


コメントは記事投稿者が公開するまで表示されません。



« ### RJNT log 202403 ### | トップページ | 定点 富山空港他 2024/4/6 sat »